createdAt,value
2023-05-12T00:02:15.145Z,2.35
2023-05-12T00:04:42.596Z,2.63
2023-05-12T00:07:10.219Z,2.30
2023-05-12T00:09:37.667Z,2.33
2023-05-12T00:12:05.693Z,2.35
2023-05-12T00:14:33.104Z,2.70
2023-05-12T00:17:00.672Z,2.58
2023-05-12T00:19:28.207Z,2.60
2023-05-12T00:21:55.664Z,2.50
2023-05-12T00:24:23.109Z,2.40
2023-05-12T00:26:50.745Z,2.60
2023-05-12T00:29:18.774Z,2.42
2023-05-12T00:31:46.360Z,2.35
2023-05-12T00:34:13.796Z,2.10
2023-05-12T00:36:41.469Z,2.25
2023-05-12T00:39:08.935Z,2.30
2023-05-12T00:41:36.784Z,2.47
2023-05-12T00:44:04.380Z,2.53
2023-05-12T00:46:32.042Z,2.40
2023-05-12T00:48:59.797Z,2.67
2023-05-12T00:51:28.099Z,2.75
2023-05-12T00:53:57.502Z,2.40
2023-05-12T00:56:26.013Z,2.42
2023-05-12T00:58:53.637Z,2.40
2023-05-12T01:01:21.244Z,2.55
2023-05-12T01:03:53.050Z,2.75
2023-05-12T01:06:37.157Z,2.40
2023-05-12T01:09:06.564Z,2.70
2023-05-12T01:11:34.327Z,2.67
2023-05-12T01:14:02.241Z,2.67
2023-05-12T01:16:37.177Z,2.42
2023-05-12T01:19:10.755Z,2.13
2023-05-12T01:21:39.185Z,2.60
2023-05-12T01:24:09.316Z,2.80
2023-05-12T01:26:38.339Z,2.40
2023-05-12T01:29:07.790Z,2.55
2023-05-12T01:31:36.282Z,2.50
2023-05-12T01:34:03.983Z,2.53
2023-05-12T01:36:31.792Z,2.40
2023-05-12T01:38:59.764Z,2.13
2023-05-12T01:41:27.356Z,2.50
2023-05-12T01:43:55.171Z,2.83
2023-05-12T01:46:22.829Z,2.53
2023-05-12T01:48:50.765Z,2.30
2023-05-12T01:51:18.396Z,2.80
2023-05-12T01:53:46.149Z,2.83
2023-05-12T01:56:14.223Z,3.05
2023-05-12T01:58:41.690Z,2.90
2023-05-12T02:01:09.699Z,2.85
2023-05-12T02:03:38.269Z,2.60
2023-05-12T02:06:12.682Z,2.80
2023-05-12T02:08:41.045Z,2.70
2023-05-12T02:11:09.173Z,2.65
2023-05-12T02:13:37.076Z,2.70
2023-05-12T02:16:05.678Z,2.55
2023-05-12T02:18:33.746Z,2.80
2023-05-12T02:21:01.257Z,3.03
2023-05-12T02:23:30.145Z,3.00
2023-05-12T02:25:57.841Z,2.88
2023-05-12T02:28:25.416Z,2.67
2023-05-12T02:30:54.481Z,2.88
2023-05-12T02:33:23.256Z,2.78
2023-05-12T02:35:51.859Z,2.58
2023-05-12T02:38:19.464Z,2.70
2023-05-12T02:40:47.359Z,2.90
2023-05-12T02:43:15.928Z,3.00
2023-05-12T02:45:44.018Z,2.70
2023-05-12T02:48:11.717Z,2.45
2023-05-12T02:50:39.191Z,2.75
2023-05-12T02:53:06.919Z,2.80
2023-05-12T02:55:34.580Z,2.75
2023-05-12T02:58:02.250Z,2.80
2023-05-12T03:00:29.812Z,2.90
2023-05-12T03:02:57.547Z,3.05
2023-05-12T03:05:25.062Z,2.70
2023-05-12T03:07:52.597Z,3.30
2023-05-12T03:10:20.321Z,3.03
2023-05-12T03:12:48.183Z,3.13
2023-05-12T03:15:16.231Z,2.83
2023-05-12T03:17:43.875Z,3.53
2023-05-12T03:20:12.365Z,3.28
2023-05-12T03:22:40.031Z,3.00
2023-05-12T03:25:10.428Z,3.28
2023-05-12T03:27:38.133Z,3.17
2023-05-12T03:30:06.216Z,3.38
2023-05-12T03:32:39.389Z,3.50
2023-05-12T03:35:10.001Z,3.35
2023-05-12T03:37:37.641Z,3.30
2023-05-12T03:40:06.434Z,3.47
2023-05-12T03:42:33.956Z,2.78
2023-05-12T03:45:01.555Z,2.67
2023-05-12T03:47:29.403Z,3.42
2023-05-12T03:49:57.586Z,3.05
2023-05-12T03:52:25.421Z,3.00
2023-05-12T03:54:52.921Z,2.97
2023-05-12T03:57:21.246Z,3.10
2023-05-12T03:59:48.678Z,3.00
2023-05-12T04:02:16.394Z,3.03
2023-05-12T04:04:43.975Z,3.20
2023-05-12T04:07:11.690Z,3.25
2023-05-12T04:09:39.217Z,3.10
2023-05-12T04:12:06.992Z,3.20
2023-05-12T04:14:42.227Z,3.33
2023-05-12T04:17:11.185Z,3.42
2023-05-12T04:19:38.760Z,3.70
2023-05-12T04:22:06.501Z,3.10
2023-05-12T04:24:34.103Z,3.22
2023-05-12T04:27:01.951Z,3.40
2023-05-12T04:29:29.567Z,3.00
2023-05-12T04:31:57.464Z,2.83
2023-05-12T04:34:25.478Z,3.00
2023-05-12T04:36:53.652Z,3.30
2023-05-12T04:39:21.489Z,2.92
2023-05-12T04:41:49.257Z,2.78
2023-05-12T04:44:16.785Z,3.03
2023-05-12T04:46:44.782Z,2.97
2023-05-12T04:49:12.446Z,3.47
2023-05-12T04:51:42.426Z,3.53
2023-05-12T04:54:10.625Z,3.88
2023-05-12T04:56:38.632Z,3.28
2023-05-12T04:59:07.198Z,3.55
2023-05-12T05:01:34.908Z,3.78
2023-05-12T05:04:02.964Z,3.38
2023-05-12T05:06:30.934Z,3.40
2023-05-12T05:08:59.871Z,3.35
2023-05-12T05:11:27.471Z,3.17
2023-05-12T05:13:55.222Z,3.50
2023-05-12T05:16:23.845Z,3.75
2023-05-12T05:18:52.287Z,3.85
2023-05-12T05:21:19.970Z,3.75
2023-05-12T05:23:47.618Z,4.28
2023-05-12T05:26:15.542Z,4.15
2023-05-12T05:28:44.014Z,3.80
2023-05-12T05:31:17.802Z,4.32
2023-05-12T05:36:13.757Z,3.72
2023-05-12T05:38:41.376Z,4.53
2023-05-12T05:41:09.508Z,4.65
2023-05-12T05:43:37.389Z,4.88
2023-05-12T05:46:05.235Z,4.65
2023-05-12T05:48:32.858Z,4.70
2023-05-12T05:51:00.781Z,4.38
2023-05-12T05:53:28.480Z,4.47
2023-05-12T05:55:56.223Z,4.18
2023-05-12T05:58:24.357Z,4.47
2023-05-12T06:00:51.764Z,4.18
2023-05-12T06:03:19.604Z,4.43
2023-05-12T06:05:48.520Z,4.90
2023-05-12T06:08:16.896Z,3.58
2023-05-12T06:10:44.425Z,4.05
2023-05-12T06:13:12.303Z,4.53
2023-05-12T06:15:39.934Z,4.70
2023-05-12T06:18:07.595Z,4.25
2023-05-12T06:20:35.257Z,4.25
2023-05-12T06:23:02.773Z,3.78
2023-05-12T06:25:30.313Z,4.50
2023-05-12T06:27:57.802Z,4.28
2023-05-12T06:30:25.439Z,4.55
2023-05-12T06:32:56.075Z,4.38
2023-05-12T06:35:23.592Z,3.78
2023-05-12T06:37:51.447Z,4.00
2023-05-12T06:40:18.988Z,3.50
2023-05-12T06:42:46.952Z,4.13
2023-05-12T06:45:20.430Z,3.70
2023-05-12T06:47:48.553Z,4.07
2023-05-12T06:50:17.181Z,3.67
2023-05-12T06:52:45.156Z,4.00
2023-05-12T06:55:12.844Z,4.05
2023-05-12T06:57:41.784Z,4.18
2023-05-12T07:00:10.904Z,3.90
2023-05-12T07:02:38.455Z,4.60
2023-05-12T07:05:06.346Z,4.25
2023-05-12T07:07:33.785Z,4.57
2023-05-12T07:10:01.297Z,4.40
2023-05-12T07:12:28.768Z,4.50
2023-05-12T07:14:56.290Z,4.35
2023-05-12T07:17:23.953Z,4.45
2023-05-12T07:19:52.088Z,4.40
2023-05-12T07:22:22.639Z,4.28
2023-05-12T07:24:50.606Z,4.63
2023-05-12T07:27:18.116Z,4.05
2023-05-12T07:29:45.624Z,3.92
2023-05-12T07:32:13.537Z,3.97
2023-05-12T07:34:41.088Z,4.18
2023-05-12T07:37:08.569Z,4.85
2023-05-12T07:39:36.287Z,5.10
2023-05-12T07:42:03.848Z,4.85
2023-05-12T07:44:33.651Z,4.53
2023-05-12T07:47:01.261Z,4.75
2023-05-12T07:49:28.696Z,5.20
2023-05-12T07:51:56.220Z,4.75
2023-05-12T07:54:23.701Z,4.47
2023-05-12T07:56:51.754Z,4.82
2023-05-12T07:59:19.190Z,4.72
2023-05-12T08:01:46.778Z,4.35
2023-05-12T08:04:14.528Z,4.35
2023-05-12T08:06:41.998Z,4.43
2023-05-12T08:09:09.467Z,4.97
2023-05-12T08:11:36.985Z,4.78
2023-05-12T08:14:04.584Z,4.28
2023-05-12T08:16:32.065Z,4.25
2023-05-12T08:18:59.754Z,3.85
2023-05-12T08:21:28.803Z,3.65
2023-05-12T08:23:56.255Z,3.42
2023-05-12T08:26:24.540Z,3.50
2023-05-12T08:28:51.937Z,3.40
2023-05-12T08:31:20.363Z,2.92
2023-05-12T08:33:51.884Z,3.00
2023-05-12T08:36:26.988Z,2.85
2023-05-12T08:38:56.404Z,2.88
2023-05-12T08:41:45.208Z,2.55
2023-05-12T08:44:13.163Z,2.70
2023-05-12T08:46:41.047Z,2.88
2023-05-12T08:49:15.895Z,3.28
2023-05-12T08:51:56.753Z,3.20
2023-05-12T08:54:28.062Z,3.05
2023-05-12T08:59:27.581Z,2.80
2023-05-12T09:01:55.547Z,2.17
2023-05-12T09:04:23.191Z,2.85
2023-05-12T09:06:52.562Z,2.50
2023-05-12T09:09:22.199Z,2.00
2023-05-12T09:11:53.335Z,2.03
2023-05-12T09:14:26.157Z,2.60
2023-05-12T09:17:04.903Z,2.88
2023-05-12T09:19:32.784Z,2.50
2023-05-12T09:22:01.812Z,2.53
2023-05-12T09:24:36.882Z,2.20
2023-05-12T09:27:04.808Z,2.13
2023-05-12T09:29:39.561Z,1.95
2023-05-12T09:32:12.769Z,2.20
2023-05-12T09:34:41.650Z,2.35
2023-05-12T09:37:09.481Z,2.28
2023-05-12T09:39:37.115Z,2.65
2023-05-12T09:42:11.221Z,2.38
2023-05-12T09:44:40.942Z,1.80
2023-05-12T09:47:10.714Z,2.10
2023-05-12T09:49:38.520Z,2.40
2023-05-12T09:52:06.509Z,2.08
2023-05-12T09:54:34.695Z,2.50
2023-05-12T09:57:05.194Z,2.10
2023-05-12T09:59:36.444Z,2.58
2023-05-12T10:02:06.737Z,2.75
2023-05-12T10:05:06.972Z,2.00
2023-05-12T10:07:35.461Z,2.50
2023-05-12T10:10:05.631Z,2.30
2023-05-12T10:12:35.007Z,2.10
2023-05-12T10:15:03.565Z,2.25
2023-05-12T10:17:32.108Z,2.20
2023-05-12T10:20:00.176Z,2.75
2023-05-12T10:22:31.353Z,2.30
2023-05-12T10:25:00.001Z,2.90
2023-05-12T10:27:29.324Z,2.28
2023-05-12T10:29:57.002Z,2.42
2023-05-12T10:32:24.571Z,2.67
2023-05-12T10:34:52.327Z,2.45
2023-05-12T10:37:19.805Z,2.38
2023-05-12T10:39:49.311Z,2.80
2023-05-12T10:42:23.101Z,2.60
2023-05-12T10:44:55.487Z,2.42
2023-05-12T10:47:36.095Z,2.78
2023-05-12T10:50:04.022Z,2.78
2023-05-12T10:52:31.613Z,2.63
2023-05-12T10:55:03.416Z,2.35
2023-05-12T10:57:33.621Z,2.90
2023-05-12T11:00:03.636Z,2.42
2023-05-12T11:02:34.647Z,2.70
2023-05-12T11:05:10.655Z,3.17
2023-05-12T11:07:39.658Z,2.50
2023-05-12T11:10:08.382Z,2.78
2023-05-12T11:12:36.763Z,5.80
2023-05-12T11:15:06.113Z,2.80
2023-05-12T11:17:33.961Z,2.42
2023-05-12T11:20:01.887Z,2.60
2023-05-12T11:22:29.539Z,2.97
2023-05-12T11:24:57.012Z,2.40
2023-05-12T11:27:26.111Z,2.88
2023-05-12T11:30:01.960Z,2.60
2023-05-12T11:32:30.154Z,3.00
2023-05-12T11:35:17.645Z,2.60
2023-05-12T11:37:46.259Z,3.08
2023-05-12T11:40:21.982Z,2.95
2023-05-12T11:42:55.920Z,2.55
2023-05-12T11:45:23.666Z,2.58
2023-05-12T11:47:51.433Z,2.30
2023-05-12T11:50:25.438Z,2.58
2023-05-12T11:52:53.419Z,2.30
2023-05-12T11:55:23.605Z,2.10
2023-05-12T11:57:59.689Z,2.30
2023-05-12T12:00:29.225Z,2.38
2023-05-12T12:03:26.345Z,2.05
2023-05-12T12:06:06.917Z,2.40
2023-05-12T12:08:34.451Z,2.45
2023-05-12T12:11:04.292Z,2.30
2023-05-12T12:13:31.755Z,2.88
2023-05-12T12:15:59.232Z,2.40
2023-05-12T12:18:27.169Z,1.98
2023-05-12T12:20:54.700Z,2.30
2023-05-12T12:23:22.245Z,2.10
2023-05-12T12:25:49.761Z,2.00
2023-05-12T12:28:17.258Z,2.17
2023-05-12T12:30:44.884Z,2.22
2023-05-12T12:33:13.169Z,2.50
2023-05-12T12:35:40.710Z,2.03
2023-05-12T12:38:08.949Z,2.08
2023-05-12T12:40:36.488Z,1.80
2023-05-12T12:43:04.028Z,2.08
2023-05-12T12:45:31.555Z,1.92
2023-05-12T12:47:59.899Z,2.05
2023-05-12T12:50:27.534Z,2.53
2023-05-12T12:52:55.063Z,2.45
2023-05-12T12:55:23.246Z,2.22
2023-05-12T12:57:51.096Z,2.78
2023-05-12T13:00:19.573Z,2.40
2023-05-12T13:02:47.321Z,2.35
2023-05-12T13:05:15.155Z,2.53
2023-05-12T13:07:42.923Z,2.40
2023-05-12T13:10:10.956Z,2.38
2023-05-12T13:12:38.485Z,2.45
2023-05-12T13:15:07.462Z,2.78
2023-05-12T13:17:34.882Z,2.17
2023-05-12T13:20:04.036Z,3.00
2023-05-12T13:22:31.883Z,2.55
2023-05-12T13:24:59.473Z,2.75
2023-05-12T13:27:26.890Z,2.30
2023-05-12T13:29:54.379Z,2.97
2023-05-12T13:32:21.941Z,3.50
2023-05-12T13:34:49.373Z,4.03
2023-05-12T13:37:16.906Z,3.78
2023-05-12T13:39:44.398Z,4.03
2023-05-12T13:42:11.996Z,3.83
2023-05-12T13:44:39.513Z,3.72
2023-05-12T13:47:09.699Z,3.20
2023-05-12T13:49:38.108Z,3.28
2023-05-12T13:52:05.937Z,2.85
2023-05-12T13:54:33.733Z,2.85
2023-05-12T13:57:04.039Z,2.70
2023-05-12T13:59:32.080Z,3.03
2023-05-12T14:01:59.925Z,3.13
2023-05-12T14:04:27.615Z,3.10
2023-05-12T14:06:55.735Z,2.72
2023-05-12T14:09:23.412Z,3.30
2023-05-12T14:11:50.860Z,3.30
2023-05-12T14:14:18.409Z,2.80
2023-05-12T14:16:46.203Z,2.72
2023-05-12T14:19:13.807Z,2.25
2023-05-12T14:21:44.586Z,2.72
2023-05-12T14:24:12.357Z,2.90
2023-05-12T14:26:39.815Z,2.85
2023-05-12T14:29:08.843Z,2.80
2023-05-12T14:31:36.635Z,3.08
2023-05-12T14:34:04.837Z,3.70
2023-05-12T14:36:32.380Z,3.22
2023-05-12T14:38:59.929Z,3.50
2023-05-12T14:41:27.426Z,3.17
2023-05-12T14:43:54.964Z,3.67
2023-05-12T14:46:22.623Z,2.30
2023-05-12T14:48:50.373Z,2.95
2023-05-12T14:51:17.789Z,2.67
2023-05-12T14:53:45.249Z,2.53
2023-05-12T14:56:12.782Z,2.47
2023-05-12T14:58:40.282Z,2.50
2023-05-12T15:01:09.454Z,3.05
2023-05-12T15:03:37.409Z,3.05
2023-05-12T15:06:07.805Z,2.80
2023-05-12T15:08:35.915Z,2.53
2023-05-12T15:11:03.343Z,2.55
2023-05-12T15:13:31.226Z,2.30
2023-05-12T15:15:58.779Z,2.90
2023-05-12T15:18:26.271Z,2.90
2023-05-12T15:20:53.907Z,2.90
2023-05-12T15:23:22.132Z,2.65
2023-05-12T15:25:49.670Z,2.50
2023-05-12T15:28:17.455Z,3.10
2023-05-12T15:30:45.590Z,2.90
2023-05-12T15:33:13.170Z,2.83
2023-05-12T15:35:40.887Z,2.55
2023-05-12T15:38:08.469Z,2.45
2023-05-12T15:40:35.955Z,3.03
2023-05-12T15:43:03.651Z,2.83
2023-05-12T15:45:33.116Z,3.38
2023-05-12T15:48:00.659Z,3.75
2023-05-12T15:50:28.583Z,3.10
2023-05-12T15:52:55.963Z,3.17
2023-05-12T15:55:23.802Z,3.08
2023-05-12T15:57:52.369Z,2.70
2023-05-12T16:00:21.769Z,3.20
2023-05-12T16:02:49.955Z,2.88
2023-05-12T16:05:17.996Z,3.30
2023-05-12T16:07:48.120Z,2.97
2023-05-12T16:10:16.051Z,2.60
2023-05-12T16:12:46.039Z,2.88
2023-05-12T16:15:13.781Z,3.38
2023-05-12T16:17:41.466Z,3.17
2023-05-12T16:20:10.447Z,3.42
2023-05-12T16:22:37.939Z,3.28
2023-05-12T16:25:05.835Z,3.67
2023-05-12T16:27:35.701Z,2.97
2023-05-12T16:30:04.075Z,2.85
2023-05-12T16:32:31.711Z,4.30
2023-05-12T16:35:00.610Z,3.53
2023-05-12T16:37:28.434Z,3.83
2023-05-12T16:39:55.959Z,3.90
2023-05-12T16:42:23.579Z,3.55
2023-05-12T16:44:57.978Z,3.80
2023-05-12T16:47:25.518Z,3.20
2023-05-12T16:49:53.707Z,3.25
2023-05-12T16:52:21.299Z,3.58
2023-05-12T16:54:48.788Z,3.25
2023-05-12T16:57:16.277Z,3.60
2023-05-12T16:59:43.747Z,3.38
2023-05-12T17:02:11.321Z,3.28
2023-05-12T17:04:38.777Z,3.35
2023-05-12T17:07:06.654Z,3.55
2023-05-12T17:09:34.106Z,3.55
2023-05-12T17:12:01.766Z,3.08
2023-05-12T17:14:29.236Z,3.50
2023-05-12T17:16:56.706Z,3.20
2023-05-12T17:19:24.288Z,3.35
2023-05-12T17:21:52.161Z,3.53
2023-05-12T17:24:19.836Z,3.80
2023-05-12T17:26:47.312Z,3.63
2023-05-12T17:29:15.090Z,3.72
2023-05-12T17:31:42.943Z,3.35
2023-05-12T17:34:10.587Z,3.45
2023-05-12T17:36:38.225Z,2.75
2023-05-12T17:39:06.865Z,3.08
2023-05-12T17:41:34.474Z,3.00
2023-05-12T17:44:02.039Z,3.35
2023-05-12T17:46:29.537Z,3.10
2023-05-12T17:48:57.076Z,3.15
2023-05-12T17:51:24.526Z,3.10
2023-05-12T17:53:52.348Z,3.10
2023-05-12T17:56:19.812Z,2.70
2023-05-12T17:58:47.211Z,3.50
2023-05-12T18:01:14.753Z,2.58
2023-05-12T18:03:42.306Z,2.85
2023-05-12T18:06:12.874Z,3.08
2023-05-12T18:08:40.401Z,3.20
2023-05-12T18:11:07.852Z,3.63
2023-05-12T18:13:35.371Z,2.78
2023-05-12T18:16:02.811Z,3.00
2023-05-12T18:18:30.424Z,2.75
2023-05-12T18:20:57.963Z,2.75
2023-05-12T18:23:25.463Z,2.58
2023-05-12T18:25:52.943Z,2.90
2023-05-12T18:28:20.364Z,2.53
2023-05-12T18:30:47.950Z,2.20
2023-05-12T18:33:15.499Z,2.72
2023-05-12T18:35:42.982Z,2.50
2023-05-12T18:38:10.514Z,2.70
2023-05-12T18:40:38.527Z,3.00
2023-05-12T18:43:06.099Z,2.67
2023-05-12T18:45:33.783Z,2.90
2023-05-12T18:48:01.565Z,4.22
2023-05-12T18:50:30.179Z,5.20
2023-05-12T18:52:57.638Z,6.43
2023-05-12T18:55:25.196Z,5.25
2023-05-12T18:57:53.019Z,4.50
2023-05-12T19:00:26.120Z,4.38
2023-05-12T19:02:53.633Z,3.35
2023-05-12T19:05:21.425Z,3.53
2023-05-12T19:07:49.058Z,3.30
2023-05-12T19:10:16.849Z,3.95
2023-05-12T19:12:44.416Z,4.55
2023-05-12T19:15:12.621Z,4.03
2023-05-12T19:17:40.456Z,3.65
2023-05-12T19:20:08.616Z,3.80
2023-05-12T19:22:36.200Z,3.35
2023-05-12T19:25:04.442Z,3.67
2023-05-12T19:27:32.020Z,3.28
2023-05-12T19:30:02.339Z,3.28
2023-05-12T19:32:31.379Z,4.65
2023-05-12T19:35:00.382Z,4.25
2023-05-12T19:37:30.841Z,3.60
2023-05-12T19:39:59.355Z,3.72
2023-05-12T19:42:27.841Z,3.80
2023-05-12T19:44:55.320Z,4.00
2023-05-12T19:47:25.707Z,4.00
2023-05-12T19:49:53.991Z,3.72
2023-05-12T19:52:25.071Z,3.40
2023-05-12T19:54:53.261Z,4.18
2023-05-12T19:57:21.121Z,4.43
2023-05-12T19:59:49.660Z,3.55
2023-05-12T20:02:19.884Z,4.43
2023-05-12T20:04:47.466Z,3.78
2023-05-12T20:07:14.901Z,4.00
2023-05-12T20:09:42.477Z,4.68
2023-05-12T20:12:10.054Z,4.93
2023-05-12T20:14:38.558Z,4.47
2023-05-12T20:17:07.548Z,4.07
2023-05-12T20:19:36.256Z,5.05
2023-05-12T20:22:03.911Z,4.20
2023-05-12T20:24:31.391Z,5.00
2023-05-12T20:26:58.923Z,4.35
2023-05-12T20:29:27.682Z,4.60
2023-05-12T20:31:55.249Z,4.97
2023-05-12T20:34:22.957Z,4.93
2023-05-12T20:36:50.531Z,5.68
2023-05-12T20:39:18.373Z,5.47
2023-05-12T20:41:46.568Z,5.75
2023-05-12T20:44:14.107Z,4.68
2023-05-12T20:46:41.663Z,5.50
2023-05-12T20:49:09.163Z,5.20
2023-05-12T20:51:36.580Z,5.25
2023-05-12T20:54:04.289Z,4.68
2023-05-12T20:56:31.769Z,4.70
2023-05-12T20:58:59.325Z,4.93
2023-05-12T21:01:27.229Z,4.60
2023-05-12T21:03:54.730Z,4.63
2023-05-12T21:06:22.307Z,4.32
2023-05-12T21:08:49.729Z,4.50
2023-05-12T21:11:18.485Z,4.30
2023-05-12T21:13:47.327Z,4.00
2023-05-12T21:16:15.777Z,4.47
2023-05-12T21:18:43.664Z,4.35
2023-05-12T21:21:11.389Z,4.40
2023-05-12T21:23:38.908Z,4.03
2023-05-12T21:26:06.427Z,3.92
2023-05-12T21:28:33.968Z,4.57
2023-05-12T21:31:01.629Z,4.20
2023-05-12T21:33:29.804Z,4.10
2023-05-12T21:35:57.273Z,5.07
2023-05-12T21:38:24.726Z,5.60
2023-05-12T21:40:52.984Z,5.43
2023-05-12T21:43:20.718Z,5.53
2023-05-12T21:45:48.289Z,4.82
2023-05-12T21:48:15.735Z,5.30
2023-05-12T21:50:43.235Z,4.95
2023-05-12T21:53:10.742Z,5.15
2023-05-12T21:55:40.258Z,4.47
2023-05-12T21:58:07.791Z,4.35
2023-05-12T22:00:35.251Z,3.67
2023-05-12T22:03:03.080Z,4.38
2023-05-12T22:05:30.727Z,3.90
2023-05-12T22:07:58.401Z,4.68
2023-05-12T22:10:25.892Z,4.63
2023-05-12T22:12:53.823Z,5.05
2023-05-12T22:15:21.453Z,5.85
2023-05-12T22:17:49.708Z,5.30
2023-05-12T22:20:18.565Z,4.40
2023-05-12T22:22:46.209Z,4.65
2023-05-12T22:25:13.587Z,4.90
2023-05-12T22:27:41.294Z,4.65
2023-05-12T22:30:10.390Z,4.70
2023-05-12T22:32:38.009Z,5.55
2023-05-12T22:35:06.463Z,5.78
2023-05-12T22:37:33.975Z,5.82
2023-05-12T22:40:01.467Z,7.13
2023-05-12T22:42:28.984Z,6.40
2023-05-12T22:44:57.597Z,6.32
2023-05-12T22:47:25.083Z,6.68
2023-05-12T22:49:52.470Z,6.10
2023-05-12T22:52:20.034Z,5.88
2023-05-12T22:54:47.491Z,5.47
2023-05-12T22:57:15.222Z,5.25
2023-05-12T22:59:42.607Z,5.07
2023-05-12T23:02:10.050Z,4.65
2023-05-12T23:04:37.558Z,4.75
2023-05-12T23:07:07.036Z,5.25
2023-05-12T23:09:36.949Z,4.50
2023-05-12T23:12:05.718Z,4.70
2023-05-12T23:14:33.222Z,4.45
2023-05-12T23:17:00.898Z,4.25
2023-05-12T23:19:28.457Z,3.70
2023-05-12T23:21:55.995Z,3.75
2023-05-12T23:24:23.506Z,4.07
2023-05-12T23:26:51.067Z,3.63
2023-05-12T23:29:21.936Z,3.90
2023-05-12T23:31:49.450Z,3.65
2023-05-12T23:34:16.901Z,3.20
2023-05-12T23:36:44.498Z,4.30
2023-05-12T23:39:13.769Z,3.25
2023-05-12T23:41:41.238Z,3.90
2023-05-12T23:44:08.721Z,4.32
2023-05-12T23:46:36.283Z,3.88
2023-05-12T23:49:04.298Z,3.58
2023-05-12T23:51:32.712Z,3.60
2023-05-12T23:54:00.215Z,3.08
2023-05-12T23:56:27.895Z,3.30
2023-05-12T23:58:55.430Z,3.65
